Time;durP1;ratioP1;P1;durP2;ratioP2;P2;SDS_P1;SDS_P2;PMS_P1;PMS_P2;Temp;Humidity;BMP_temperature;BMP_pressure;BME280_temperature;BME280_humidity;BME280_pressure;Samples;Min_cycle;Max_cycle;Signal;HPM_P1;HPM_P2
2022/04/07 00:01:54;;;;;;;16.43;2.90;;;20.50;99.90;;;;;;4973075;28;20382;-87
2022/04/07 00:04:21;;;;;;;13.90;2.40;;;20.70;99.90;;;;;;4972667;28;20407;-89
2022/04/07 00:06:48;;;;;;;14.63;2.70;;;20.80;99.90;;;;;;4955356;28;20398;-88
2022/04/07 00:09:15;;;;;;;10.83;2.10;;;20.90;99.90;;;;;;4972967;28;20957;-91
2022/04/07 00:11:42;;;;;;;12.40;2.30;;;20.80;99.90;;;;;;4972544;28;20379;-88
2022/04/07 00:14:09;;;;;;;8.67;1.80;;;20.60;99.90;;;;;;4972631;28;20398;-89
2022/04/07 00:16:36;;;;;;;7.15;1.30;;;20.50;99.90;;;;;;4973168;28;20387;-91
2022/04/07 00:19:05;;;;;;;5.60;1.08;;;20.50;99.90;;;;;;4972838;28;20398;-91
2022/04/07 00:21:46;;;;;;;3.13;0.80;;;20.40;99.90;;;;;;4955600;28;20547;-89
2022/04/07 00:24:13;;;;;;;3.38;0.90;;;20.20;99.90;;;;;;4973196;28;20429;-91
2022/04/07 00:26:40;;;;;;;4.53;0.85;;;20.00;99.90;;;;;;4972602;28;20716;-89
2022/04/07 00:29:07;;;;;;;2.42;0.70;;;19.90;99.90;;;;;;4972630;28;20394;-88
2022/04/07 00:31:40;;;;;;;3.60;0.70;;;20.00;99.90;;;;;;4955340;28;20492;-89
2022/04/07 00:34:08;;;;;;;2.03;0.60;;;20.00;99.90;;;;;;4972651;28;20378;-89
2022/04/07 00:36:35;;;;;;;3.33;0.80;;;19.90;99.90;;;;;;4972563;28;20390;-91
2022/04/07 00:39:02;;;;;;;2.65;0.80;;;19.80;99.90;;;;;;4971949;28;20394;-90
2022/04/07 00:41:29;;;;;;;2.83;1.00;;;19.60;99.90;;;;;;4955201;28;20776;-90
2022/04/07 00:43:56;;;;;;;5.13;1.13;;;19.50;99.90;;;;;;4954807;28;20414;-90
2022/04/07 00:46:23;;;;;;;4.63;1.10;;;19.40;99.90;;;;;;4973223;28;20382;-90
2022/04/07 00:48:50;;;;;;;3.55;1.00;;;19.30;99.90;;;;;;4973232;28;20851;-91
2022/04/07 00:51:17;;;;;;;4.38;1.05;;;19.30;99.90;;;;;;4955213;28;20386;-89
2022/04/07 00:53:45;;;;;;;6.20;1.30;;;19.20;99.90;;;;;;4955887;28;20390;-89
2022/04/07 00:56:13;;;;;;;4.93;1.40;;;19.10;99.90;;;;;;4957278;28;20391;-92
2022/04/07 00:58:40;;;;;;;5.97;1.47;;;19.00;99.90;;;;;;4954692;28;20842;-88
2022/04/07 01:01:08;;;;;;;7.18;1.55;;;18.90;99.90;;;;;;4971899;28;20379;-88
2022/04/07 01:03:35;;;;;;;8.35;1.55;;;18.80;99.90;;;;;;4953934;28;20883;-87
2022/04/07 01:06:03;;;;;;;8.07;1.58;;;18.70;99.90;;;;;;4971284;28;20387;-88
2022/04/07 01:08:30;;;;;;;8.13;1.42;;;18.70;99.90;;;;;;4971335;28;20378;-88
2022/04/07 01:10:58;;;;;;;6.13;1.52;;;18.50;99.90;;;;;;4971420;28;20390;-88
2022/04/07 01:30:11;;;;;;;8.60;2.25;;;18.20;99.90;;;;;;5107637;27;20358;-89
2022/04/07 01:32:46;;;;;;;9.15;1.83;;;18.20;99.90;;;;;;5107089;28;20371;-88
2022/04/07 01:35:14;;;;;;;8.18;1.70;;;18.10;99.90;;;;;;5103768;28;20415;-91
2022/04/07 01:37:44;;;;;;;8.13;1.80;;;18.10;99.90;;;;;;5108447;28;20390;-89
2022/04/07 01:40:17;;;;;;;8.43;1.93;;;18.00;99.90;;;;;;5107535;28;20466;-91
2022/04/07 01:42:45;;;;;;;11.00;2.20;;;18.00;99.90;;;;;;5108313;28;20466;-86
2022/04/07 01:45:13;;;;;;;8.43;2.13;;;18.10;99.90;;;;;;5119849;28;20378;-88
2022/04/07 01:47:43;;;;;;;11.85;2.40;;;18.10;99.90;;;;;;5111830;28;20391;-89
2022/04/07 01:50:11;;;;;;;12.52;2.60;;;18.10;99.90;;;;;;5107067;28;20885;-82
2022/04/07 01:52:41;;;;;;;10.25;2.50;;;18.10;99.90;;;;;;5089412;28;20373;-85
2022/04/07 01:55:08;;;;;;;14.13;2.78;;;18.20;99.90;;;;;;5107532;28;20915;-87
2022/04/07 01:57:36;;;;;;;11.85;2.47;;;18.20;99.90;;;;;;5107131;28;20421;-83
2022/04/07 02:00:04;;;;;;;12.07;2.53;;;18.20;99.90;;;;;;5107399;28;20380;-91
2022/04/07 02:02:31;;;;;;;11.27;2.60;;;18.30;99.90;;;;;;5106371;28;20849;-82
2022/04/07 02:05:00;;;;;;;10.10;2.50;;;18.30;99.90;;;;;;5108019;28;20420;-85
2022/04/07 02:07:32;;;;;;;8.97;2.17;;;18.20;99.90;;;;;;5113288;28;20887;-86
2022/04/07 02:10:00;;;;;;;11.45;2.40;;;18.20;99.90;;;;;;5106761;28;20840;-85
2022/04/07 02:12:30;;;;;;;11.25;2.30;;;18.20;99.90;;;;;;5107234;28;20379;-88
2022/04/07 02:14:59;;;;;;;8.48;2.15;;;18.20;99.90;;;;;;5108803;28;20384;-89
2022/04/07 02:17:26;;;;;;;10.20;2.23;;;18.20;99.90;;;;;;5106856;28;20382;-87
2022/04/07 02:19:58;;;;;;;11.65;2.20;;;18.20;99.90;;;;;;5108284;28;20411;-87
2022/04/07 02:22:28;;;;;;;12.63;2.53;;;18.10;99.90;;;;;;5108988;28;20376;-87
2022/04/07 02:24:59;;;;;;;13.40;2.55;;;18.10;99.90;;;;;;5111142;28;20380;-87
2022/04/07 02:27:33;;;;;;;11.48;2.67;;;18.10;99.90;;;;;;5115734;28;20413;-85
2022/04/07 02:29:59;;;;;;;13.00;2.58;;;18.20;99.90;;;;;;5110969;28;20407;-87
2022/04/07 02:32:28;;;;;;;14.20;2.97;;;18.20;99.90;;;;;;5106094;28;20364;-87
2022/04/07 02:34:56;;;;;;;15.27;3.30;;;18.20;99.90;;;;;;5087311;28;20416;-86
2022/04/07 02:37:25;;;;;;;16.02;3.10;;;18.20;99.90;;;;;;5088410;28;20869;-87
2022/04/07 02:39:53;;;;;;;14.80;2.97;;;18.20;99.90;;;;;;5103999;28;20395;-88
2022/04/07 02:42:20;;;;;;;17.10;3.25;;;18.20;99.90;;;;;;5095614;28;20937;-90
2022/04/07 02:44:48;;;;;;;17.83;3.30;;;18.20;99.90;;;;;;5064983;28;20484;-90
2022/04/07 02:47:16;;;;;;;17.70;3.42;;;18.20;99.90;;;;;;5089041;28;20856;-88
2022/04/07 02:49:43;;;;;;;15.90;2.97;;;18.20;99.90;;;;;;5094479;28;20760;-90
2022/04/07 02:52:11;;;;;;;19.50;3.20;;;18.10;99.90;;;;;;5094939;28;20372;-86
2022/04/07 02:54:38;;;;;;;16.63;3.28;;;18.10;99.90;;;;;;5093864;28;20467;-86
2022/04/07 02:57:06;;;;;;;16.95;3.30;;;18.10;99.90;;;;;;5094394;28;20369;-87
2022/04/07 02:59:33;;;;;;;14.43;2.97;;;18.10;99.90;;;;;;5093524;28;20368;-85
2022/04/07 03:02:00;;;;;;;16.73;3.42;;;18.20;99.90;;;;;;5081431;28;20381;-92
2022/04/07 03:04:27;;;;;;;16.98;3.15;;;18.30;99.90;;;;;;5076917;28;20386;-86
2022/04/07 03:06:54;;;;;;;13.48;3.08;;;18.30;99.90;;;;;;5084701;28;20375;-86
2022/04/07 03:09:22;;;;;;;13.65;2.88;;;18.40;99.90;;;;;;5077895;28;20408;-87
2022/04/07 03:11:49;;;;;;;15.35;3.03;;;18.40;99.90;;;;;;5076716;28;20471;-86
2022/04/07 03:14:16;;;;;;;15.73;2.70;;;18.40;99.90;;;;;;5070009;28;20420;-90
2022/04/07 03:16:43;;;;;;;13.43;2.85;;;18.40;99.90;;;;;;5095140;28;20386;-93
2022/04/07 03:19:10;;;;;;;15.20;3.13;;;18.40;99.90;;;;;;5098402;28;20380;-87
2022/04/07 03:21:37;;;;;;;13.27;2.75;;;18.40;99.90;;;;;;5075158;28;20375;-93
2022/04/07 03:24:04;;;;;;;16.35;2.72;;;18.40;99.90;;;;;;5078369;28;20390;-89
2022/04/07 03:26:31;;;;;;;12.85;2.80;;;18.50;99.90;;;;;;5084211;28;20358;-87
2022/04/07 03:29:02;;;;;;;12.07;2.60;;;18.50;99.90;;;;;;5093658;28;20420;-86
2022/04/07 03:31:32;;;;;;;10.43;2.47;;;18.50;99.90;;;;;;5104940;28;20709;-92
2022/04/07 03:34:00;;;;;;;15.25;2.97;;;18.50;99.90;;;;;;5099594;28;20456;-91
2022/04/07 03:36:29;;;;;;;13.25;2.50;;;18.50;99.90;;;;;;5097657;28;20437;-88
2022/04/07 03:38:56;;;;;;;16.53;3.00;;;18.40;99.90;;;;;;5100716;28;20380;-86
2022/04/07 03:41:24;;;;;;;14.87;2.90;;;18.40;99.90;;;;;;5097100;28;20384;-87
2022/04/07 03:43:53;;;;;;;15.50;3.00;;;18.40;99.90;;;;;;5099313;28;20384;-88
2022/04/07 03:46:21;;;;;;;14.93;3.25;;;18.40;99.90;;;;;;5099271;28;20882;-85
2022/04/07 03:48:49;;;;;;;14.70;2.92;;;18.40;99.90;;;;;;5098954;28;20396;-90
2022/04/07 03:51:18;;;;;;;15.77;3.20;;;18.50;99.90;;;;;;5096107;28;20402;-86
2022/04/07 03:53:45;;;;;;;13.65;3.30;;;18.50;99.90;;;;;;5101148;28;20407;-88
2022/04/07 03:56:12;;;;;;;15.07;3.00;;;18.50;99.90;;;;;;5095106;28;20438;-85
2022/04/07 03:58:44;;;;;;;18.17;3.50;;;18.60;99.90;;;;;;5095081;28;20387;-84
2022/04/07 04:01:10;;;;;;;16.70;3.05;;;18.60;99.90;;;;;;5099941;28;20415;-85
2022/04/07 04:03:38;;;;;;;13.98;3.28;;;18.60;99.90;;;;;;5098294;28;20475;-87
2022/04/07 04:06:06;;;;;;;13.65;2.90;;;18.60;99.90;;;;;;5100431;28;20410;-94
2022/04/07 04:08:33;;;;;;;15.77;3.40;;;18.50;99.90;;;;;;5101573;28;20407;-91
2022/04/07 04:11:00;;;;;;;20.42;3.50;;;18.50;99.90;;;;;;5097866;28;20368;-89
2022/04/07 04:13:36;;;;;;;16.63;3.38;;;18.50;99.90;;;;;;5100336;28;20441;-87
2022/04/07 04:20:17;;;;;;;18.03;3.70;;;18.60;99.90;;;;;;5096864;28;20372;-95
2022/04/07 04:22:44;;;;;;;16.77;3.55;;;18.70;99.90;;;;;;5092608;22;20432;-86
2022/04/07 04:25:11;;;;;;;17.13;3.33;;;18.70;99.90;;;;;;5092465;28;20402;-86
2022/04/07 04:27:40;;;;;;;19.23;3.50;;;18.70;99.90;;;;;;5051688;28;20378;-87
2022/04/07 04:30:08;;;;;;;17.25;3.42;;;18.80;99.90;;;;;;5062206;28;20490;-87
2022/04/07 04:32:35;;;;;;;20.92;3.90;;;18.80;99.90;;;;;;5036200;28;20739;-87
2022/04/07 04:35:03;;;;;;;18.95;3.90;;;18.80;99.90;;;;;;5043628;28;20410;-88
2022/04/07 04:37:30;;;;;;;19.23;4.22;;;18.80;99.90;;;;;;5049536;28;20704;-87
2022/04/07 04:39:56;;;;;;;24.63;4.32;;;18.90;99.90;;;;;;5055569;28;20382;-85
2022/04/07 04:42:23;;;;;;;20.75;4.00;;;18.90;99.90;;;;;;5056464;28;20459;-86
2022/04/07 04:44:50;;;;;;;18.90;4.70;;;19.00;99.90;;;;;;5070750;28;20370;-85
2022/04/07 04:47:20;;;;;;;21.75;5.07;;;19.00;99.90;;;;;;5082726;28;20372;-86
2022/04/07 04:49:47;;;;;;;23.23;5.47;;;19.00;99.90;;;;;;5089818;28;20404;-87
2022/04/07 04:52:15;;;;;;;26.60;5.55;;;19.00;99.90;;;;;;5058473;28;20385;-86
2022/04/07 04:54:42;;;;;;;24.98;5.18;;;19.00;99.90;;;;;;5068885;28;20428;-88
2022/04/07 04:57:09;;;;;;;21.85;4.30;;;18.90;99.90;;;;;;5071247;28;20737;-87
2022/04/07 04:59:36;;;;;;;21.00;4.03;;;18.80;99.90;;;;;;5070798;28;20378;-93
2022/04/07 05:02:04;;;;;;;18.80;3.78;;;18.80;99.90;;;;;;5072116;28;20480;-92
2022/04/07 05:04:31;;;;;;;16.98;3.70;;;18.70;99.90;;;;;;5073302;28;20469;-96
2022/04/07 05:06:59;;;;;;;16.98;3.38;;;18.70;99.90;;;;;;5073284;28;20382;-87
2022/04/07 05:09:26;;;;;;;22.50;4.07;;;18.70;99.90;;;;;;5039397;28;20410;-85
2022/04/07 05:11:53;;;;;;;21.07;3.90;;;18.80;99.90;;;;;;5059645;28;20466;-88
2022/04/07 05:14:20;;;;;;;18.65;4.00;;;18.60;99.90;;;;;;5070846;28;20918;-86
2022/04/07 05:16:47;;;;;;;20.42;4.20;;;18.60;99.90;;;;;;5068298;28;20454;-86
2022/04/07 05:19:14;;;;;;;19.65;4.00;;;18.50;99.90;;;;;;5054401;28;20435;-88
2022/04/07 05:21:41;;;;;;;20.58;3.70;;;18.60;99.90;;;;;;5069114;28;20734;-86
2022/04/07 05:24:08;;;;;;;19.63;3.90;;;18.60;99.90;;;;;;5072248;28;20915;-87
2022/04/07 05:26:35;;;;;;;16.98;3.72;;;18.60;99.90;;;;;;5078537;28;20391;-86
2022/04/07 05:29:02;;;;;;;22.00;3.78;;;18.60;99.90;;;;;;5054782;28;20403;-86
2022/04/07 05:31:29;;;;;;;21.77;4.30;;;18.60;99.90;;;;;;5050210;28;20368;-91
2022/04/07 05:33:56;;;;;;;23.85;4.00;;;18.70;99.90;;;;;;5033779;28;20392;-84
2022/04/07 05:36:23;;;;;;;23.77;4.35;;;18.70;99.90;;;;;;5042470;28;20465;-85
2022/04/07 05:38:50;;;;;;;19.85;3.88;;;18.70;99.90;;;;;;5064535;28;20396;-86
2022/04/07 05:41:17;;;;;;;20.67;4.50;;;18.60;99.90;;;;;;5054161;28;20390;-84
2022/04/07 05:43:44;;;;;;;22.50;4.40;;;18.60;99.90;;;;;;5049608;28;20907;-87
2022/04/07 05:46:11;;;;;;;26.52;4.72;;;18.60;99.90;;;;;;5062572;28;20382;-86
2022/04/07 05:48:38;;;;;;;25.48;5.00;;;18.60;99.90;;;;;;5052110;28;20425;-86
2022/04/07 05:51:05;;;;;;;22.30;4.30;;;18.50;99.90;;;;;;5069403;28;20410;-87
2022/04/07 05:53:32;;;;;;;23.95;4.07;;;18.40;99.90;;;;;;5044373;28;20882;-85
2022/04/07 05:55:59;;;;;;;22.60;4.03;;;18.40;99.90;;;;;;5054433;28;20390;-85
2022/04/07 05:58:27;;;;;;;24.13;4.15;;;17.90;99.90;;;;;;5062652;28;20870;-86
2022/04/07 06:00:54;;;;;;;21.00;3.83;;;18.20;99.90;;;;;;5049815;28;20396;-85
2022/04/07 06:03:21;;;;;;;22.10;3.83;;;18.20;99.90;;;;;;5061145;28;20381;-84
2022/04/07 06:05:54;;;;;;;27.00;4.45;;;18.20;99.90;;;;;;5070554;28;20448;-86
2022/04/07 06:08:21;;;;;;;19.15;3.70;;;18.10;99.90;;;;;;5038787;28;20445;-85
2022/04/07 06:10:49;;;;;;;22.42;4.15;;;18.10;99.90;;;;;;5053708;28;20752;-86
2022/04/07 06:13:16;;;;;;;25.10;4.45;;;18.10;99.90;;;;;;5031895;28;20388;-86
2022/04/07 06:15:43;;;;;;;25.05;3.97;;;18.10;99.90;;;;;;5042751;28;20477;-86
2022/04/07 06:18:10;;;;;;;25.60;4.18;;;18.00;99.90;;;;;;5062271;28;20475;-86
2022/04/07 06:20:37;;;;;;;22.92;3.88;;;18.00;99.90;;;;;;5071524;28;20427;-86
2022/04/07 06:23:04;;;;;;;23.67;4.20;;;17.90;99.90;;;;;;5082706;28;20388;-85
2022/04/07 06:25:31;;;;;;;23.25;3.80;;;17.80;99.90;;;;;;5060556;28;20380;-86
2022/04/07 06:27:59;;;;;;;24.55;4.00;;;17.80;99.90;;;;;;5035124;28;20384;-86
2022/04/07 06:30:26;;;;;;;27.95;4.15;;;17.80;99.90;;;;;;5054310;28;20397;-84
2022/04/07 06:32:53;;;;;;;27.02;4.13;;;17.70;99.90;;;;;;5073462;28;20377;-87
2022/04/07 06:35:20;;;;;;;24.38;4.00;;;17.70;99.90;;;;;;5049808;28;20423;-87
2022/04/07 06:37:57;;;;;;;27.20;5.15;;;17.60;99.90;;;;;;5036479;28;20467;-86
2022/04/07 06:40:25;;;;;;;23.35;6.15;;;17.70;99.90;;;;;;5053303;28;20416;-86
2022/04/07 06:42:54;;;;;;;32.88;5.88;;;17.60;99.90;;;;;;5052863;28;20437;-86
2022/04/07 06:45:21;;;;;;;24.80;4.82;;;17.60;99.90;;;;;;5053362;28;20379;-85
2022/04/07 06:47:49;;;;;;;30.92;4.90;;;17.60;99.90;;;;;;5057958;28;20394;-85
2022/04/07 06:50:17;;;;;;;28.77;8.25;;;18.00;99.90;;;;;;5071113;28;20402;-84
2022/04/07 06:52:45;;;;;;;37.90;10.35;;;17.50;99.90;;;;;;5070585;28;20796;-85
2022/04/07 06:55:13;;;;;;;32.40;8.73;;;17.60;99.90;;;;;;5043917;28;20758;-85
2022/04/07 06:58:04;;;;;;;34.72;5.75;;;17.60;99.90;;;;;;5063340;28;20388;-88
2022/04/07 07:00:33;;;;;;;28.58;5.05;;;17.50;99.90;;;;;;5064708;28;20382;-86
2022/04/07 07:03:03;;;;;;;29.63;4.82;;;17.50;99.90;;;;;;5053615;28;20477;-85
2022/04/07 07:05:33;;;;;;;29.70;5.07;;;17.40;99.90;;;;;;5062084;28;20424;-84
2022/04/07 07:08:20;;;;;;;32.65;5.95;;;17.40;99.90;;;;;;5072323;28;20374;-83
2022/04/07 07:10:49;;;;;;;36.33;6.90;;;17.40;99.90;;;;;;5071908;28;20943;-85
2022/04/07 07:13:20;;;;;;;41.33;9.10;;;17.40;99.90;;;;;;5072132;28;20869;-85
2022/04/07 07:15:47;;;;;;;33.45;6.25;;;17.40;99.90;;;;;;5072707;28;20378;-86
2022/04/07 07:18:15;;;;;;;38.78;6.25;;;17.30;99.90;;;;;;5054342;28;20378;-87
2022/04/07 07:20:42;;;;;;;38.00;6.00;;;17.20;99.90;;;;;;5071432;28;20390;-85
2022/04/07 07:23:09;;;;;;;35.05;5.70;;;17.20;99.90;;;;;;5056684;28;20483;-85
2022/04/07 07:25:36;;;;;;;35.33;5.40;;;17.20;99.90;;;;;;5051304;28;20506;-85
2022/04/07 07:28:04;;;;;;;37.20;5.95;;;17.20;99.90;;;;;;5061326;28;20470;-83
2022/04/07 07:30:32;;;;;;;36.20;5.53;;;17.10;99.90;;;;;;5052531;28;20380;-85
2022/04/07 07:32:59;;;;;;;40.17;6.03;;;17.10;99.90;;;;;;5055722;28;20409;-85
2022/04/07 07:35:27;;;;;;;41.67;5.72;;;17.10;99.90;;;;;;5065211;28;20387;-85
2022/04/07 07:37:58;;;;;;;42.72;6.10;;;17.10;99.90;;;;;;5064282;28;20408;-84
2022/04/07 07:40:27;;;;;;;40.80;5.75;;;17.20;99.90;;;;;;5061216;28;20469;-84
2022/04/07 07:42:56;;;;;;;37.88;5.57;;;17.10;99.90;;;;;;5064020;28;20380;-84
2022/04/07 07:45:24;;;;;;;43.38;6.07;;;17.20;99.90;;;;;;5071288;28;20396;-84
2022/04/07 07:47:55;;;;;;;41.63;5.93;;;17.20;99.90;;;;;;5061073;28;20423;-83
2022/04/07 07:50:23;;;;;;;44.33;6.00;;;17.20;99.90;;;;;;5064466;28;20405;-83
2022/04/07 07:52:49;;;;;;;42.63;5.50;;;17.20;99.90;;;;;;5063933;28;20449;-83
2022/04/07 07:55:17;;;;;;;41.17;5.85;;;17.20;99.90;;;;;;5065062;28;20476;-84
2022/04/07 07:57:45;;;;;;;45.60;5.88;;;17.30;99.90;;;;;;5043435;28;20382;-83
2022/04/07 08:00:15;;;;;;;45.97;6.43;;;17.20;99.90;;;;;;5059534;28;20388;-81
2022/04/07 08:02:42;;;;;;;46.60;6.00;;;17.30;99.90;;;;;;5053854;28;20390;-84
2022/04/07 08:05:10;;;;;;;45.50;5.75;;;17.30;99.90;;;;;;5053745;28;20386;-85
2022/04/07 08:07:43;;;;;;;43.22;6.15;;;17.30;99.90;;;;;;5068702;28;20386;-84
2022/04/07 08:10:11;;;;;;;42.08;5.88;;;17.30;99.90;;;;;;5068285;28;20985;-84
2022/04/07 08:12:39;;;;;;;47.37;6.37;;;17.30;99.90;;;;;;5073342;28;20371;-82
2022/04/07 08:15:06;;;;;;;54.40;6.43;;;17.20;99.90;;;;;;5071271;28;20416;-84
2022/04/07 08:17:37;;;;;;;41.15;5.95;;;17.20;99.90;;;;;;5060299;28;20415;-88
2022/04/07 08:20:11;;;;;;;44.87;6.30;;;17.20;99.90;;;;;;5071413;28;20466;-83
2022/04/07 08:22:38;;;;;;;43.17;6.00;;;17.20;99.90;;;;;;5068164;28;20425;-83
2022/04/07 08:25:05;;;;;;;41.50;6.10;;;17.20;99.90;;;;;;5058934;28;20423;-91
2022/04/07 08:27:32;;;;;;;47.55;6.40;;;17.20;99.90;;;;;;5055255;28;20376;-81
2022/04/07 08:29:59;;;;;;;55.30;9.73;;;17.20;99.90;;;;;;5064802;28;20422;-86
2022/04/07 08:32:26;;;;;;;59.47;15.32;;;17.20;99.90;;;;;;5066014;28;20390;-83
2022/04/07 08:34:58;;;;;;;70.43;15.50;;;17.20;99.90;;;;;;5068391;28;20469;-86
2022/04/07 08:37:28;;;;;;;60.90;12.30;;;17.20;99.90;;;;;;5062957;28;20432;-84
2022/04/07 08:39:55;;;;;;;49.92;9.38;;;17.20;99.90;;;;;;5057262;28;20392;-83
2022/04/07 08:42:27;;;;;;;47.55;7.93;;;17.20;99.90;;;;;;5053821;28;20388;-85
2022/04/07 08:44:53;;;;;;;50.10;7.57;;;17.20;99.90;;;;;;5043582;28;20531;-88
2022/04/07 08:47:21;;;;;;;45.40;6.80;;;17.20;99.90;;;;;;5053596;28;20973;-86
2022/04/07 08:49:52;;;;;;;46.75;6.70;;;17.20;99.90;;;;;;5061792;28;20414;-89
2022/04/07 08:52:20;;;;;;;40.88;7.07;;;17.20;99.90;;;;;;5061786;28;20386;-86
2022/04/07 08:54:47;;;;;;;45.72;7.22;;;17.20;99.90;;;;;;5063041;28;20388;-83
2022/04/07 08:57:15;;;;;;;45.03;7.25;;;17.20;99.90;;;;;;5039567;28;20419;-88
2022/04/07 08:59:43;;;;;;;55.80;8.60;;;17.20;99.90;;;;;;5038360;28;20484;-85
2022/04/07 09:02:13;;;;;;;57.67;9.48;;;17.20;99.90;;;;;;5044754;28;20461;-87
2022/04/07 09:04:41;;;;;;;50.92;8.30;;;17.20;99.90;;;;;;5062586;28;20593;-88
2022/04/07 09:07:11;;;;;;;46.45;7.78;;;17.20;99.90;;;;;;5060995;28;20712;-88
2022/04/07 09:09:39;;;;;;;39.37;7.47;;;17.20;99.90;;;;;;5072180;28;20406;-87
2022/04/07 09:12:07;;;;;;;45.28;7.50;;;17.20;99.90;;;;;;5061873;28;20502;-84
2022/04/07 09:14:35;;;;;;;44.63;7.03;;;17.30;99.90;;;;;;5074906;28;20386;-84
2022/04/07 09:17:02;;;;;;;38.40;7.20;;;17.30;99.90;;;;;;5065555;28;20374;-85
2022/04/07 09:19:31;;;;;;;46.27;7.77;;;17.30;99.90;;;;;;5070894;28;20463;-85
2022/04/07 09:22:31;;;;;;;44.53;7.70;;;17.30;99.90;;;;;;5036935;28;20799;-85
2022/04/07 09:25:06;;;;;;;45.42;7.45;;;17.30;99.90;;;;;;5071246;28;20939;-86
2022/04/07 09:27:33;;;;;;;41.92;6.60;;;17.30;99.90;;;;;;5061852;28;20372;-88
2022/04/07 09:30:00;;;;;;;41.95;7.00;;;17.30;99.90;;;;;;5050100;28;20404;-85
2022/04/07 09:32:28;;;;;;;46.13;7.47;;;17.20;99.90;;;;;;5057768;28;20410;-88
2022/04/07 09:35:00;;;;;;;42.67;7.38;;;17.20;99.90;;;;;;5060781;28;20870;-87
2022/04/07 09:37:29;;;;;;;43.67;7.47;;;17.20;99.90;;;;;;5032744;28;20442;-87
2022/04/07 09:40:06;;;;;;;45.47;7.60;;;17.30;99.90;;;;;;5058739;28;20389;-86
2022/04/07 09:42:34;;;;;;;44.45;7.53;;;17.30;99.90;;;;;;5056849;28;20470;-84
2022/04/07 09:45:02;;;;;;;45.47;8.50;;;17.20;99.90;;;;;;5068700;28;20409;-89
2022/04/07 09:47:37;;;;;;;46.50;6.68;;;17.30;99.90;;;;;;5072372;28;20378;-83
2022/04/07 09:50:23;;;;;;;44.95;6.28;;;17.20;99.90;;;;;;5071426;28;20413;-82
2022/04/07 09:53:05;;;;;;;42.43;6.50;;;17.20;99.90;;;;;;5066278;28;20376;-86
2022/04/07 09:55:41;;;;;;;42.95;6.10;;;17.20;99.90;;;;;;5065713;28;20427;-87
2022/04/07 09:58:11;;;;;;;41.53;6.00;;;17.20;99.90;;;;;;5067825;28;20379;-87
2022/04/07 10:00:38;;;;;;;38.58;5.25;;;17.20;99.90;;;;;;5057460;28;20388;-88
2022/04/07 10:03:08;;;;;;;42.97;5.47;;;17.30;99.90;;;;;;5037152;28;20411;-83
2022/04/07 10:05:35;;;;;;;42.03;5.55;;;17.30;99.90;;;;;;5062240;28;20397;-83
2022/04/07 10:08:03;;;;;;;39.08;5.40;;;17.30;99.90;;;;;;5059002;28;21162;-87
2022/04/07 10:10:30;;;;;;;38.33;5.20;;;17.30;99.90;;;;;;5064534;28;20897;-87
2022/04/07 10:13:01;;;;;;;37.63;5.30;;;17.20;99.90;;;;;;5050660;28;20569;-89
2022/04/07 10:15:28;;;;;;;37.90;5.35;;;17.20;99.90;;;;;;5066841;28;20751;-88
2022/04/07 10:18:00;;;;;;;36.20;4.80;;;17.20;99.90;;;;;;5054198;28;20390;-88
2022/04/07 10:20:33;;;;;;;38.60;5.00;;;17.20;99.90;;;;;;5071787;28;20400;-88
2022/04/07 10:23:37;;;;;;;40.03;5.10;;;17.20;99.90;;;;;;5050279;28;20421;-86
2022/04/07 10:26:07;;;;;;;37.78;4.90;;;17.20;99.90;;;;;;5058089;28;20890;-87
2022/04/07 10:28:34;;;;;;;37.42;5.15;;;17.10;99.90;;;;;;5068287;28;20456;-86
2022/04/07 10:31:14;;;;;;;40.00;4.80;;;17.20;99.90;;;;;;5055371;28;20383;-88
2022/04/07 10:33:46;;;;;;;39.42;4.60;;;17.20;99.90;;;;;;5054684;28;20705;-88
2022/04/07 10:36:24;;;;;;;37.70;4.78;;;17.20;99.90;;;;;;5040106;28;20529;-86
2022/04/07 10:38:53;;;;;;;38.80;4.75;;;17.20;99.90;;;;;;5073768;28;20366;-87
2022/04/07 10:41:39;;;;;;;37.63;4.53;;;17.30;99.90;;;;;;5060600;28;20880;-88
2022/04/07 10:44:17;;;;;;;32.70;4.75;;;17.20;99.90;;;;;;5054879;28;20379;-83
2022/04/07 10:46:44;;;;;;;35.30;4.20;;;17.20;99.90;;;;;;5057253;28;20384;-87
2022/04/07 10:49:19;;;;;;;35.45;4.75;;;17.20;99.90;;;;;;5065973;28;20970;-87
2022/04/07 10:51:51;;;;;;;39.25;4.90;;;17.20;99.90;;;;;;5065146;28;20414;-88
2022/04/07 10:54:18;;;;;;;29.88;4.65;;;17.20;99.90;;;;;;5064871;28;20482;-86
2022/04/07 10:56:55;;;;;;;36.38;4.65;;;17.20;99.90;;;;;;5069321;28;20396;-84
2022/04/07 10:59:34;;;;;;;36.93;4.80;;;17.20;99.90;;;;;;5054570;28;20463;-86
2022/04/07 11:02:12;;;;;;;37.15;5.00;;;17.10;99.90;;;;;;5076313;28;20386;-89
2022/04/07 11:04:41;;;;;;;32.17;4.70;;;17.20;99.90;;;;;;5078903;28;20394;-89
2022/04/07 11:07:07;;;;;;;36.20;4.90;;;17.20;99.90;;;;;;5083050;28;20798;-83
2022/04/07 11:09:44;;;;;;;32.28;4.80;;;17.20;99.90;;;;;;5074156;28;20465;-86
2022/04/07 11:12:31;;;;;;;34.78;4.90;;;17.20;99.90;;;;;;5056846;28;20422;-87
2022/04/07 11:15:04;;;;;;;33.28;4.40;;;17.20;99.90;;;;;;5055305;28;20391;-86
2022/04/07 11:17:46;;;;;;;32.33;4.65;;;17.10;99.90;;;;;;5072866;28;20393;-87
2022/04/07 11:20:22;;;;;;;34.20;4.60;;;17.10;99.90;;;;;;5046500;28;20446;-87
2022/04/07 11:23:05;;;;;;;33.17;4.38;;;17.10;99.90;;;;;;5034755;28;20494;-87
2022/04/07 11:25:45;;;;;;;30.48;4.57;;;17.10;99.90;;;;;;5052597;28;20430;-88
2022/04/07 11:28:13;;;;;;;35.47;4.85;;;17.10;99.90;;;;;;5034792;28;20393;-86
2022/04/07 11:30:50;;;;;;;33.70;5.00;;;17.10;99.90;;;;;;5053583;28;20482;-84
2022/04/07 11:33:29;;;;;;;27.97;4.60;;;17.10;99.90;;;;;;5053484;28;20479;-86
2022/04/07 11:36:07;;;;;;;27.90;4.57;;;17.10;99.90;;;;;;5072360;28;20428;-85
2022/04/07 11:38:47;;;;;;;33.73;4.50;;;17.10;99.90;;;;;;5072652;28;20423;-88
2022/04/07 11:41:16;;;;;;;28.42;4.50;;;17.10;99.90;;;;;;5065616;28;20387;-88
2022/04/07 11:43:49;;;;;;;29.17;4.32;;;17.10;99.90;;;;;;5070130;28;20465;-88
2022/04/07 11:46:32;;;;;;;30.77;4.40;;;17.10;99.90;;;;;;5072615;28;20931;-88
2022/04/07 11:49:00;;;;;;;27.40;4.05;;;17.10;99.90;;;;;;5049094;28;20848;-83
2022/04/07 11:51:28;;;;;;;24.77;4.22;;;17.10;99.90;;;;;;5066059;28;20869;-88
2022/04/07 11:53:57;;;;;;;31.92;4.30;;;17.10;99.90;;;;;;5072974;28;20401;-83
2022/04/07 11:56:27;;;;;;;24.40;4.15;;;17.10;99.90;;;;;;5068027;28;21031;-83
2022/04/07 11:58:59;;;;;;;32.05;4.38;;;17.10;99.90;;;;;;5059368;28;20395;-85
2022/04/07 12:01:28;;;;;;;23.58;4.10;;;17.10;99.90;;;;;;5055886;28;20384;-85
2022/04/07 12:04:02;;;;;;;29.50;4.28;;;17.00;99.90;;;;;;5051912;28;20387;-83
2022/04/07 12:06:32;;;;;;;29.40;4.07;;;17.10;99.90;;;;;;5052505;28;20392;-87
2022/04/07 12:09:02;;;;;;;29.15;4.05;;;17.10;99.90;;;;;;5072612;28;20413;-86
2022/04/07 12:11:32;;;;;;;28.58;4.05;;;17.10;99.90;;;;;;5072760;28;20358;-88
2022/04/07 12:14:02;;;;;;;27.70;4.20;;;17.10;99.90;;;;;;5052693;28;20759;-89
2022/04/07 12:16:29;;;;;;;25.60;4.20;;;17.10;99.90;;;;;;5053630;28;20741;-89
2022/04/07 12:18:57;;;;;;;26.35;4.00;;;17.10;99.90;;;;;;5053462;28;20387;-90
2022/04/07 12:21:25;;;;;;;25.38;4.05;;;17.10;99.90;;;;;;5060593;28;20376;-89
2022/04/07 12:24:13;;;;;;;27.90;4.30;;;17.10;99.90;;;;;;5065453;28;20406;-84
2022/04/07 12:26:47;;;;;;;28.65;4.20;;;17.10;99.90;;;;;;5053230;28;20375;-85
2022/04/07 12:29:15;;;;;;;29.50;4.10;;;17.10;99.90;;;;;;5052558;28;20431;-86
2022/04/07 12:31:42;;;;;;;26.30;4.30;;;17.20;99.90;;;;;;5052632;28;20375;-87
2022/04/07 12:34:16;;;;;;;28.35;4.18;;;17.20;99.90;;;;;;5052400;28;20466;-87
2022/04/07 12:36:43;;;;;;;25.48;4.65;;;17.20;99.90;;;;;;5063657;28;20377;-88
2022/04/07 12:39:17;;;;;;;34.03;4.50;;;17.20;99.90;;;;;;5060719;28;20392;-86
2022/04/07 12:41:51;;;;;;;27.35;4.20;;;17.20;99.90;;;;;;5063307;28;20393;-88
2022/04/07 12:44:34;;;;;;;28.00;4.15;;;17.10;99.90;;;;;;5054905;28;20703;-86
2022/04/07 12:47:08;;;;;;;25.73;4.15;;;17.10;99.90;;;;;;5066539;28;20382;-87
2022/04/07 12:49:37;;;;;;;29.08;4.15;;;17.10;99.90;;;;;;5052106;28;20411;-85
2022/04/07 12:52:07;;;;;;;29.33;4.47;;;17.10;99.90;;;;;;5063643;28;20375;-86
2022/04/07 12:54:35;;;;;;;29.67;4.45;;;17.00;99.90;;;;;;5071635;28;20845;-86
2022/04/07 12:57:15;;;;;;;25.80;4.55;;;17.00;99.90;;;;;;5072480;28;20388;-84
2022/04/07 13:00:06;;;;;;;28.35;3.95;;;17.10;99.90;;;;;;5075364;28;20410;-83
2022/04/07 13:02:52;;;;;;;23.27;3.78;;;17.00;99.90;;;;;;5089567;28;20398;-84
2022/04/07 13:05:26;;;;;;;27.50;3.78;;;17.00;99.90;;;;;;5068058;28;20386;-87
2022/04/07 13:07:54;;;;;;;30.90;3.92;;;17.10;99.90;;;;;;5071887;28;20366;-85
2022/04/07 13:10:23;;;;;;;30.48;4.18;;;17.10;99.90;;;;;;5071028;28;20841;-85
2022/04/07 13:12:50;;;;;;;28.65;4.13;;;17.10;99.90;;;;;;5036004;28;20384;-85